sensor_id;sensor_type;location;lat;lon;timestamp;temperature;humidity
5457;DHT22;2751;49.802;9.944;2023-02-19T00:01:18;10.80;63.60
5457;DHT22;2751;49.802;9.944;2023-02-19T00:03:48;11.00;62.40
5457;DHT22;2751;49.802;9.944;2023-02-19T00:06:17;10.80;61.60
5457;DHT22;2751;49.802;9.944;2023-02-19T00:08:44;10.80;62.80
5457;DHT22;2751;49.802;9.944;2023-02-19T00:11:15;10.70;63.60
5457;DHT22;2751;49.802;9.944;2023-02-19T00:13:43;10.70;64.40
5457;DHT22;2751;49.802;9.944;2023-02-19T00:16:13;11.10;61.20
5457;DHT22;2751;49.802;9.944;2023-02-19T00:18:41;10.80;63.40
5457;DHT22;2751;49.802;9.944;2023-02-19T00:21:08;10.70;64.60
5457;DHT22;2751;49.802;9.944;2023-02-19T00:23:35;10.70;65.80
5457;DHT22;2751;49.802;9.944;2023-02-19T00:26:03;10.90;71.10
5457;DHT22;2751;49.802;9.944;2023-02-19T00:28:32;10.60;76.40
5457;DHT22;2751;49.802;9.944;2023-02-19T00:31:04;10.60;85.50
5457;DHT22;2751;49.802;9.944;2023-02-19T00:33:31;10.50;95.50
5457;DHT22;2751;49.802;9.944;2023-02-19T00:35:59;10.50;99.90
5457;DHT22;2751;49.802;9.944;2023-02-19T00:38:27;10.50;99.90
5457;DHT22;2751;49.802;9.944;2023-02-19T00:40:53;10.40;99.90
5457;DHT22;2751;49.802;9.944;2023-02-19T00:43:20;10.40;99.90
5457;DHT22;2751;49.802;9.944;2023-02-19T00:45:48;10.80;99.90
5457;DHT22;2751;49.802;9.944;2023-02-19T00:48:15;10.40;99.90
5457;DHT22;2751;49.802;9.944;2023-02-19T00:50:42;10.40;99.90
5457;DHT22;2751;49.802;9.944;2023-02-19T00:53:09;10.40;99.90
5457;DHT22;2751;49.802;9.944;2023-02-19T00:55:36;10.80;99.90
5457;DHT22;2751;49.802;9.944;2023-02-19T00:58:03;10.40;99.90
5457;DHT22;2751;49.802;9.944;2023-02-19T01:00:30;10.40;99.90
5457;DHT22;2751;49.802;9.944;2023-02-19T01:02:59;10.40;99.90
5457;DHT22;2751;49.802;9.944;2023-02-19T01:05:26;10.40;99.90
5457;DHT22;2751;49.802;9.944;2023-02-19T01:07:53;10.40;99.90
5457;DHT22;2751;49.802;9.944;2023-02-19T01:10:19;10.40;99.90
5457;DHT22;2751;49.802;9.944;2023-02-19T01:12:46;10.30;99.90
5457;DHT22;2751;49.802;9.944;2023-02-19T01:15:13;10.30;99.90
5457;DHT22;2751;49.802;9.944;2023-02-19T01:17:40;10.40;99.90
5457;DHT22;2751;49.802;9.944;2023-02-19T01:20:09;10.20;1.00
5457;DHT22;2751;49.802;9.944;2023-02-19T01:22:36;10.20;1.00
5457;DHT22;2751;49.802;9.944;2023-02-19T01:25:03;10.20;1.00
5457;DHT22;2751;49.802;9.944;2023-02-19T01:27:30;10.20;1.00
5457;DHT22;2751;49.802;9.944;2023-02-19T01:29:56;10.10;1.00
5457;DHT22;2751;49.802;9.944;2023-02-19T01:32:23;10.10;1.00
5457;DHT22;2751;49.802;9.944;2023-02-19T01:34:50;10.10;1.30
5457;DHT22;2751;49.802;9.944;2023-02-19T01:37:18;10.10;1.00
5457;DHT22;2751;49.802;9.944;2023-02-19T01:39:46;10.10;1.00
5457;DHT22;2751;49.802;9.944;2023-02-19T01:42:14;10.00;99.90
5457;DHT22;2751;49.802;9.944;2023-02-19T01:47:54;10.00;1.00
5457;DHT22;2751;49.802;9.944;2023-02-19T01:50:23;10.00;1.00
5457;DHT22;2751;49.802;9.944;2023-02-19T01:52:53;10.00;93.70
5457;DHT22;2751;49.802;9.944;2023-02-19T01:55:21;10.00;51.10
5457;DHT22;2751;49.802;9.944;2023-02-19T01:57:51;10.00;1.00
5457;DHT22;2751;49.802;9.944;2023-02-19T02:00:19;10.10;1.00
5457;DHT22;2751;49.802;9.944;2023-02-19T02:02:51;10.10;1.00
5457;DHT22;2751;49.802;9.944;2023-02-19T02:05:31;10.10;99.90
5457;DHT22;2751;49.802;9.944;2023-02-19T02:08:03;10.10;99.90
5457;DHT22;2751;49.802;9.944;2023-02-19T02:10:48;10.10;99.90
5457;DHT22;2751;49.802;9.944;2023-02-19T02:13:15;10.20;99.90
5457;DHT22;2751;49.802;9.944;2023-02-19T02:15:48;10.20;99.90
5457;DHT22;2751;49.802;9.944;2023-02-19T02:18:26;10.20;99.90
5457;DHT22;2751;49.802;9.944;2023-02-19T02:21:05;10.20;99.90
5457;DHT22;2751;49.802;9.944;2023-02-19T02:23:50;10.30;99.90
5457;DHT22;2751;49.802;9.944;2023-02-19T02:26:34;10.30;99.90
5457;DHT22;2751;49.802;9.944;2023-02-19T02:32:03;10.50;99.90
5457;DHT22;2751;49.802;9.944;2023-02-19T02:34:37;10.30;99.90
5457;DHT22;2751;49.802;9.944;2023-02-19T02:37:06;10.30;99.90
5457;DHT22;2751;49.802;9.944;2023-02-19T02:39:35;10.40;99.90
5457;DHT22;2751;49.802;9.944;2023-02-19T02:42:04;10.40;99.90
5457;DHT22;2751;49.802;9.944;2023-02-19T02:44:48;10.30;99.90
5457;DHT22;2751;49.802;9.944;2023-02-19T02:47:32;10.50;99.90
5457;DHT22;2751;49.802;9.944;2023-02-19T02:50:08;10.40;99.90
5457;DHT22;2751;49.802;9.944;2023-02-19T02:52:38;10.40;99.90
5457;DHT22;2751;49.802;9.944;2023-02-19T02:55:24;10.40;99.90
5457;DHT22;2751;49.802;9.944;2023-02-19T02:57:54;10.40;99.90
5457;DHT22;2751;49.802;9.944;2023-02-19T03:00:21;10.40;99.90
5457;DHT22;2751;49.802;9.944;2023-02-19T03:02:51;10.40;99.90
5457;DHT22;2751;49.802;9.944;2023-02-19T03:05:20;10.70;99.90
5457;DHT22;2751;49.802;9.944;2023-02-19T03:08:07;10.40;99.90
5457;DHT22;2751;49.802;9.944;2023-02-19T03:10:38;10.40;99.90
5457;DHT22;2751;49.802;9.944;2023-02-19T03:13:10;10.40;99.90
5457;DHT22;2751;49.802;9.944;2023-02-19T03:16:00;10.40;99.90
5457;DHT22;2751;49.802;9.944;2023-02-19T03:18:50;10.40;99.90
5457;DHT22;2751;49.802;9.944;2023-02-19T03:21:55;10.40;99.90
5457;DHT22;2751;49.802;9.944;2023-02-19T03:24:26;10.40;99.90
5457;DHT22;2751;49.802;9.944;2023-02-19T03:27:13;10.30;99.90
5457;DHT22;2751;49.802;9.944;2023-02-19T03:29:42;10.30;99.90
5457;DHT22;2751;49.802;9.944;2023-02-19T03:32:12;10.30;99.90
5457;DHT22;2751;49.802;9.944;2023-02-19T03:34:44;10.30;99.90
5457;DHT22;2751;49.802;9.944;2023-02-19T03:37:14;10.20;99.90
5457;DHT22;2751;49.802;9.944;2023-02-19T03:39:42;10.20;99.90
5457;DHT22;2751;49.802;9.944;2023-02-19T03:42:22;10.20;99.90
5457;DHT22;2751;49.802;9.944;2023-02-19T03:45:06;10.10;99.90
5457;DHT22;2751;49.802;9.944;2023-02-19T03:47:41;10.10;99.90
5457;DHT22;2751;49.802;9.944;2023-02-19T03:50:18;10.10;99.90
5457;DHT22;2751;49.802;9.944;2023-02-19T03:52:54;10.10;99.90
5457;DHT22;2751;49.802;9.944;2023-02-19T03:55:29;10.10;99.90
5457;DHT22;2751;49.802;9.944;2023-02-19T03:58:00;10.10;99.90
5457;DHT22;2751;49.802;9.944;2023-02-19T04:00:31;10.00;99.90
5457;DHT22;2751;49.802;9.944;2023-02-19T04:03:04;10.10;99.90
5457;DHT22;2751;49.802;9.944;2023-02-19T04:05:38;10.00;99.90
5457;DHT22;2751;49.802;9.944;2023-02-19T04:08:10;10.00;99.90
5457;DHT22;2751;49.802;9.944;2023-02-19T04:10:38;10.00;99.90
5457;DHT22;2751;49.802;9.944;2023-02-19T04:13:10;10.00;99.90
5457;DHT22;2751;49.802;9.944;2023-02-19T04:15:40;10.00;99.90
5457;DHT22;2751;49.802;9.944;2023-02-19T04:18:12;10.40;99.90
5457;DHT22;2751;49.802;9.944;2023-02-19T04:20:43;10.10;99.90
5457;DHT22;2751;49.802;9.944;2023-02-19T04:23:11;10.10;99.90
5457;DHT22;2751;49.802;9.944;2023-02-19T04:25:42;10.10;99.90
5457;DHT22;2751;49.802;9.944;2023-02-19T04:28:09;10.10;99.90
5457;DHT22;2751;49.802;9.944;2023-02-19T04:30:38;10.20;99.90
5457;DHT22;2751;49.802;9.944;2023-02-19T04:33:05;10.10;99.90
5457;DHT22;2751;49.802;9.944;2023-02-19T04:35:32;10.10;99.90
5457;DHT22;2751;49.802;9.944;2023-02-19T04:38:00;10.10;99.90
5457;DHT22;2751;49.802;9.944;2023-02-19T04:40:27;10.10;99.90
5457;DHT22;2751;49.802;9.944;2023-02-19T04:42:54;10.00;99.90
5457;DHT22;2751;49.802;9.944;2023-02-19T04:45:21;10.00;99.90
5457;DHT22;2751;49.802;9.944;2023-02-19T04:47:48;10.10;99.90
5457;DHT22;2751;49.802;9.944;2023-02-19T04:50:15;10.00;99.90
5457;DHT22;2751;49.802;9.944;2023-02-19T04:52:41;10.10;99.90
5457;DHT22;2751;49.802;9.944;2023-02-19T04:55:10;10.10;99.90
5457;DHT22;2751;49.802;9.944;2023-02-19T04:57:36;10.10;99.90
5457;DHT22;2751;49.802;9.944;2023-02-19T05:00:04;10.10;99.90
5457;DHT22;2751;49.802;9.944;2023-02-19T05:02:32;10.10;99.90
5457;DHT22;2751;49.802;9.944;2023-02-19T05:04:59;10.10;99.90
5457;DHT22;2751;49.802;9.944;2023-02-19T05:07:26;10.10;99.90
5457;DHT22;2751;49.802;9.944;2023-02-19T05:09:53;10.00;99.90
5457;DHT22;2751;49.802;9.944;2023-02-19T05:12:21;10.20;99.90
5457;DHT22;2751;49.802;9.944;2023-02-19T05:14:48;10.20;99.90
5457;DHT22;2751;49.802;9.944;2023-02-19T05:17:15;9.90;1.00
5457;DHT22;2751;49.802;9.944;2023-02-19T05:19:42;9.90;1.00
5457;DHT22;2751;49.802;9.944;2023-02-19T05:22:09;9.80;1.00
5457;DHT22;2751;49.802;9.944;2023-02-19T05:24:35;9.80;1.00
5457;DHT22;2751;49.802;9.944;2023-02-19T05:27:02;9.80;1.00
5457;DHT22;2751;49.802;9.944;2023-02-19T05:29:31;9.70;1.00
5457;DHT22;2751;49.802;9.944;2023-02-19T05:31:58;9.80;3.10
5457;DHT22;2751;49.802;9.944;2023-02-19T05:34:24;9.70;99.90
5457;DHT22;2751;49.802;9.944;2023-02-19T05:36:51;9.70;1.00
5457;DHT22;2751;49.802;9.944;2023-02-19T05:39:18;9.60;1.00
5457;DHT22;2751;49.802;9.944;2023-02-19T05:41:45;9.50;1.00
5457;DHT22;2751;49.802;9.944;2023-02-19T05:44:12;9.50;99.90
5457;DHT22;2751;49.802;9.944;2023-02-19T05:46:40;9.40;83.00
5457;DHT22;2751;49.802;9.944;2023-02-19T05:49:07;9.40;99.90
5457;DHT22;2751;49.802;9.944;2023-02-19T05:51:34;9.40;99.90
5457;DHT22;2751;49.802;9.944;2023-02-19T05:54:00;9.30;1.00
5457;DHT22;2751;49.802;9.944;2023-02-19T05:56:30;9.30;19.50
5457;DHT22;2751;49.802;9.944;2023-02-19T05:58:58;9.30;1.00
5457;DHT22;2751;49.802;9.944;2023-02-19T06:01:27;9.30;99.90
5457;DHT22;2751;49.802;9.944;2023-02-19T06:03:55;9.40;94.00
5457;DHT22;2751;49.802;9.944;2023-02-19T06:06:22;9.40;1.00
5457;DHT22;2751;49.802;9.944;2023-02-19T06:08:50;9.50;1.00
5457;DHT22;2751;49.802;9.944;2023-02-19T06:11:17;9.50;99.90
5457;DHT22;2751;49.802;9.944;2023-02-19T06:13:44;9.60;99.90
5457;DHT22;2751;49.802;9.944;2023-02-19T06:16:11;9.60;1.00
5457;DHT22;2751;49.802;9.944;2023-02-19T06:18:38;9.70;1.00
5457;DHT22;2751;49.802;9.944;2023-02-19T06:21:09;9.70;1.00
5457;DHT22;2751;49.802;9.944;2023-02-19T06:23:36;9.80;1.00
5457;DHT22;2751;49.802;9.944;2023-02-19T06:26:07;10.00;99.90
5457;DHT22;2751;49.802;9.944;2023-02-19T06:28:35;9.90;99.90
5457;DHT22;2751;49.802;9.944;2023-02-19T06:31:02;10.00;99.90
5457;DHT22;2751;49.802;9.944;2023-02-19T06:33:29;10.00;99.90
5457;DHT22;2751;49.802;9.944;2023-02-19T06:35:57;10.00;99.90
5457;DHT22;2751;49.802;9.944;2023-02-19T06:38:27;10.00;99.90
5457;DHT22;2751;49.802;9.944;2023-02-19T06:40:54;10.50;99.90
5457;DHT22;2751;49.802;9.944;2023-02-19T06:43:21;10.10;99.90
5457;DHT22;2751;49.802;9.944;2023-02-19T06:45:48;10.10;99.90
5457;DHT22;2751;49.802;9.944;2023-02-19T06:48:14;10.10;99.90
5457;DHT22;2751;49.802;9.944;2023-02-19T06:50:41;10.10;99.90
5457;DHT22;2751;49.802;9.944;2023-02-19T06:53:08;10.20;99.90
5457;DHT22;2751;49.802;9.944;2023-02-19T06:55:37;10.20;99.90
5457;DHT22;2751;49.802;9.944;2023-02-19T06:58:05;10.20;99.90
5457;DHT22;2751;49.802;9.944;2023-02-19T07:00:32;10.20;99.90
5457;DHT22;2751;49.802;9.944;2023-02-19T07:02:59;10.20;99.90
5457;DHT22;2751;49.802;9.944;2023-02-19T07:05:26;10.20;99.90
5457;DHT22;2751;49.802;9.944;2023-02-19T07:07:53;10.20;99.90
5457;DHT22;2751;49.802;9.944;2023-02-19T07:10:20;10.30;99.90
5457;DHT22;2751;49.802;9.944;2023-02-19T07:12:48;10.30;99.90
5457;DHT22;2751;49.802;9.944;2023-02-19T07:15:15;10.30;99.90
5457;DHT22;2751;49.802;9.944;2023-02-19T07:17:42;10.30;99.90
5457;DHT22;2751;49.802;9.944;2023-02-19T07:20:09;10.30;99.90
5457;DHT22;2751;49.802;9.944;2023-02-19T07:22:36;10.30;99.90
5457;DHT22;2751;49.802;9.944;2023-02-19T07:25:03;10.60;99.90
5457;DHT22;2751;49.802;9.944;2023-02-19T07:27:30;10.40;99.90
5457;DHT22;2751;49.802;9.944;2023-02-19T07:29:58;10.30;99.90
5457;DHT22;2751;49.802;9.944;2023-02-19T07:32:25;10.30;99.90
5457;DHT22;2751;49.802;9.944;2023-02-19T07:34:52;10.40;99.90
5457;DHT22;2751;49.802;9.944;2023-02-19T07:37:19;10.40;99.90
5457;DHT22;2751;49.802;9.944;2023-02-19T07:39:48;10.70;99.90
5457;DHT22;2751;49.802;9.944;2023-02-19T07:42:14;10.50;99.90
5457;DHT22;2751;49.802;9.944;2023-02-19T07:44:41;10.50;99.90
5457;DHT22;2751;49.802;9.944;2023-02-19T07:47:09;10.50;99.90
5457;DHT22;2751;49.802;9.944;2023-02-19T07:49:36;10.50;99.90
5457;DHT22;2751;49.802;9.944;2023-02-19T07:52:03;10.50;99.90
5457;DHT22;2751;49.802;9.944;2023-02-19T07:54:30;10.50;99.90
5457;DHT22;2751;49.802;9.944;2023-02-19T07:56:57;10.50;99.90
5457;DHT22;2751;49.802;9.944;2023-02-19T07:59:24;10.50;99.90
5457;DHT22;2751;49.802;9.944;2023-02-19T08:01:51;10.50;99.90
5457;DHT22;2751;49.802;9.944;2023-02-19T08:04:36;10.50;99.90
5457;DHT22;2751;49.802;9.944;2023-02-19T08:07:03;10.90;99.90
5457;DHT22;2751;49.802;9.944;2023-02-19T08:09:31;10.60;99.90
5457;DHT22;2751;49.802;9.944;2023-02-19T08:11:59;10.50;99.90
5457;DHT22;2751;49.802;9.944;2023-02-19T08:14:43;10.50;99.90
5457;DHT22;2751;49.802;9.944;2023-02-19T08:17:10;10.40;99.90
5457;DHT22;2751;49.802;9.944;2023-02-19T08:19:38;10.50;99.90
5457;DHT22;2751;49.802;9.944;2023-02-19T08:22:05;10.50;99.90
5457;DHT22;2751;49.802;9.944;2023-02-19T08:24:32;10.50;99.90
5457;DHT22;2751;49.802;9.944;2023-02-19T08:26:59;10.80;99.90
5457;DHT22;2751;49.802;9.944;2023-02-19T08:29:26;10.60;99.90
5457;DHT22;2751;49.802;9.944;2023-02-19T08:31:53;11.10;99.90
5457;DHT22;2751;49.802;9.944;2023-02-19T08:34:20;10.70;99.90
5457;DHT22;2751;49.802;9.944;2023-02-19T08:36:48;10.60;99.90
5457;DHT22;2751;49.802;9.944;2023-02-19T08:39:15;10.60;99.90
5457;DHT22;2751;49.802;9.944;2023-02-19T08:41:41;10.80;99.90
5457;DHT22;2751;49.802;9.944;2023-02-19T08:44:09;10.40;99.90
5457;DHT22;2751;49.802;9.944;2023-02-19T08:46:35;10.60;99.90
5457;DHT22;2751;49.802;9.944;2023-02-19T08:49:03;10.30;1.00
5457;DHT22;2751;49.802;9.944;2023-02-19T08:51:31;10.20;1.00
5457;DHT22;2751;49.802;9.944;2023-02-19T08:54:01;10.10;1.00
5457;DHT22;2751;49.802;9.944;2023-02-19T08:56:28;10.30;99.90
5457;DHT22;2751;49.802;9.944;2023-02-19T08:58:55;10.20;1.00
5457;DHT22;2751;49.802;9.944;2023-02-19T09:01:21;10.30;99.90
5457;DHT22;2751;49.802;9.944;2023-02-19T09:03:48;10.30;99.90
5457;DHT22;2751;49.802;9.944;2023-02-19T09:06:17;10.40;99.90
5457;DHT22;2751;49.802;9.944;2023-02-19T09:08:45;10.40;99.90
5457;DHT22;2751;49.802;9.944;2023-02-19T09:11:13;10.50;99.90
5457;DHT22;2751;49.802;9.944;2023-02-19T09:13:41;11.00;99.90
5457;DHT22;2751;49.802;9.944;2023-02-19T09:16:08;10.70;99.90
5457;DHT22;2751;49.802;9.944;2023-02-19T09:18:35;10.70;99.90
5457;DHT22;2751;49.802;9.944;2023-02-19T09:21:04;10.70;99.90
5457;DHT22;2751;49.802;9.944;2023-02-19T09:23:32;10.60;99.90
5457;DHT22;2751;49.802;9.944;2023-02-19T09:25:59;10.60;99.90
5457;DHT22;2751;49.802;9.944;2023-02-19T09:28:29;10.60;99.90
5457;DHT22;2751;49.802;9.944;2023-02-19T09:30:56;10.60;99.90
5457;DHT22;2751;49.802;9.944;2023-02-19T09:33:22;10.60;99.90
5457;DHT22;2751;49.802;9.944;2023-02-19T09:35:49;10.50;99.90
5457;DHT22;2751;49.802;9.944;2023-02-19T09:38:16;11.00;99.90
5457;DHT22;2751;49.802;9.944;2023-02-19T09:40:43;10.80;99.90
5457;DHT22;2751;49.802;9.944;2023-02-19T09:43:14;10.90;99.90
5457;DHT22;2751;49.802;9.944;2023-02-19T09:45:43;11.30;99.90
5457;DHT22;2751;49.802;9.944;2023-02-19T09:48:11;11.40;99.90
5457;DHT22;2751;49.802;9.944;2023-02-19T09:50:40;11.40;99.90
5457;DHT22;2751;49.802;9.944;2023-02-19T09:53:13;11.00;99.90
5457;DHT22;2751;49.802;9.944;2023-02-19T09:55:42;11.00;99.90
5457;DHT22;2751;49.802;9.944;2023-02-19T09:58:20;11.40;99.90
5457;DHT22;2751;49.802;9.944;2023-02-19T10:00:51;10.70;99.90
5457;DHT22;2751;49.802;9.944;2023-02-19T10:03:21;10.40;99.90
5457;DHT22;2751;49.802;9.944;2023-02-19T10:05:50;10.30;99.90
5457;DHT22;2751;49.802;9.944;2023-02-19T10:08:19;10.30;99.90
5457;DHT22;2751;49.802;9.944;2023-02-19T10:10:47;10.40;99.90
5457;DHT22;2751;49.802;9.944;2023-02-19T10:13:18;10.70;99.90
5457;DHT22;2751;49.802;9.944;2023-02-19T10:15:47;10.80;99.90
5457;DHT22;2751;49.802;9.944;2023-02-19T10:18:18;11.00;99.90
5457;DHT22;2751;49.802;9.944;2023-02-19T10:20:46;11.10;99.90
5457;DHT22;2751;49.802;9.944;2023-02-19T10:23:14;11.10;99.90
5457;DHT22;2751;49.802;9.944;2023-02-19T10:25:44;10.90;99.90
5457;DHT22;2751;49.802;9.944;2023-02-19T10:28:14;10.90;99.90
5457;DHT22;2751;49.802;9.944;2023-02-19T10:30:42;10.80;99.90
5457;DHT22;2751;49.802;9.944;2023-02-19T10:33:11;10.90;99.90
5457;DHT22;2751;49.802;9.944;2023-02-19T10:35:52;11.20;99.90
5457;DHT22;2751;49.802;9.944;2023-02-19T10:38:20;10.80;99.90
5457;DHT22;2751;49.802;9.944;2023-02-19T10:40:51;10.70;99.90
5457;DHT22;2751;49.802;9.944;2023-02-19T10:43:24;10.70;99.90
5457;DHT22;2751;49.802;9.944;2023-02-19T10:45:58;11.20;99.90
5457;DHT22;2751;49.802;9.944;2023-02-19T10:48:29;10.80;99.90
5457;DHT22;2751;49.802;9.944;2023-02-19T10:51:00;10.80;99.90
5457;DHT22;2751;49.802;9.944;2023-02-19T10:53:45;10.80;99.90
5457;DHT22;2751;49.802;9.944;2023-02-19T10:56:14;11.00;99.90
5457;DHT22;2751;49.802;9.944;2023-02-19T10:58:42;10.80;99.90
5457;DHT22;2751;49.802;9.944;2023-02-19T11:01:16;11.00;99.90
5457;DHT22;2751;49.802;9.944;2023-02-19T11:03:45;10.60;99.90
5457;DHT22;2751;49.802;9.944;2023-02-19T11:06:15;10.70;99.90
5457;DHT22;2751;49.802;9.944;2023-02-19T11:08:52;10.70;99.90
5457;DHT22;2751;49.802;9.944;2023-02-19T11:11:25;10.80;99.90
5457;DHT22;2751;49.802;9.944;2023-02-19T11:13:53;10.80;99.90
5457;DHT22;2751;49.802;9.944;2023-02-19T11:16:21;10.80;99.90
5457;DHT22;2751;49.802;9.944;2023-02-19T11:18:53;10.90;99.90
5457;DHT22;2751;49.802;9.944;2023-02-19T11:21:28;11.40;99.90
5457;DHT22;2751;49.802;9.944;2023-02-19T11:23:58;11.10;99.90
5457;DHT22;2751;49.802;9.944;2023-02-19T11:26:29;11.20;99.90
5457;DHT22;2751;49.802;9.944;2023-02-19T11:28:58;11.20;95.20
5457;DHT22;2751;49.802;9.944;2023-02-19T11:31:27;11.20;91.00
5457;DHT22;2751;49.802;9.944;2023-02-19T11:33:57;11.20;91.90
5457;DHT22;2751;49.802;9.944;2023-02-19T11:36:31;11.70;92.80
5457;DHT22;2751;49.802;9.944;2023-02-19T11:39:13;11.40;84.60
5457;DHT22;2751;49.802;9.944;2023-02-19T11:42:02;11.60;81.30
5457;DHT22;2751;49.802;9.944;2023-02-19T11:44:43;11.30;76.50
5457;DHT22;2751;49.802;9.944;2023-02-19T11:47:36;11.10;72.50
5457;DHT22;2751;49.802;9.944;2023-02-19T11:50:14;11.20;79.20
5457;DHT22;2751;49.802;9.944;2023-02-19T11:52:55;11.20;96.10
5457;DHT22;2751;49.802;9.944;2023-02-19T11:55:36;11.10;99.90
5457;DHT22;2751;49.802;9.944;2023-02-19T11:58:17;11.20;98.80
5457;DHT22;2751;49.802;9.944;2023-02-19T12:00:52;11.40;91.90
5457;DHT22;2751;49.802;9.944;2023-02-19T12:06:18;11.40;79.40
5457;DHT22;2751;49.802;9.944;2023-02-19T12:09:02;11.60;86.80
5457;DHT22;2751;49.802;9.944;2023-02-19T12:11:43;11.90;77.10
5457;DHT22;2751;49.802;9.944;2023-02-19T12:14:57;11.90;63.50
5457;DHT22;2751;49.802;9.944;2023-02-19T12:17:46;11.60;71.10
5457;DHT22;2751;49.802;9.944;2023-02-19T12:20:24;11.70;67.00
5457;DHT22;2751;49.802;9.944;2023-02-19T12:23:01;11.30;65.20
5457;DHT22;2751;49.802;9.944;2023-02-19T12:25:50;11.70;64.70
5457;DHT22;2751;49.802;9.944;2023-02-19T12:28:54;11.60;61.40
5457;DHT22;2751;49.802;9.944;2023-02-19T12:31:46;11.70;66.50
5457;DHT22;2751;49.802;9.944;2023-02-19T12:34:38;11.90;63.80
5457;DHT22;2751;49.802;9.944;2023-02-19T12:37:20;12.00;58.60
5457;DHT22;2751;49.802;9.944;2023-02-19T12:40:02;12.00;66.70
5457;DHT22;2751;49.802;9.944;2023-02-19T12:42:52;11.90;73.90
5457;DHT22;2751;49.802;9.944;2023-02-19T12:45:23;11.60;70.00
5457;DHT22;2751;49.802;9.944;2023-02-19T12:47:58;11.50;77.80
5457;DHT22;2751;49.802;9.944;2023-02-19T12:50:26;11.60;80.00
5457;DHT22;2751;49.802;9.944;2023-02-19T12:52:58;11.20;78.80
5457;DHT22;2751;49.802;9.944;2023-02-19T12:55:29;11.10;89.70
5457;DHT22;2751;49.802;9.944;2023-02-19T12:58:01;11.20;97.10
5457;DHT22;2751;49.802;9.944;2023-02-19T13:00:34;11.20;97.30
5457;DHT22;2751;49.802;9.944;2023-02-19T13:03:08;11.10;90.50
5457;DHT22;2751;49.802;9.944;2023-02-19T13:05:42;11.20;99.90
5457;DHT22;2751;49.802;9.944;2023-02-19T13:08:14;11.10;99.90
5457;DHT22;2751;49.802;9.944;2023-02-19T13:10:48;11.20;98.80
5457;DHT22;2751;49.802;9.944;2023-02-19T13:13:22;11.10;94.00
5457;DHT22;2751;49.802;9.944;2023-02-19T13:15:52;11.00;93.90
5457;DHT22;2751;49.802;9.944;2023-02-19T13:18:23;11.00;97.90
5457;DHT22;2751;49.802;9.944;2023-02-19T13:20:52;11.30;94.20
5457;DHT22;2751;49.802;9.944;2023-02-19T13:23:22;11.40;96.60
5457;DHT22;2751;49.802;9.944;2023-02-19T13:26:27;11.50;95.80
5457;DHT22;2751;49.802;9.944;2023-02-19T13:29:14;11.50;88.60
5457;DHT22;2751;49.802;9.944;2023-02-19T13:32:11;11.90;77.10
5457;DHT22;2751;49.802;9.944;2023-02-19T13:34:50;11.60;65.10
5457;DHT22;2751;49.802;9.944;2023-02-19T13:37:21;11.70;65.70
5457;DHT22;2751;49.802;9.944;2023-02-19T13:39:50;11.50;58.00
5457;DHT22;2751;49.802;9.944;2023-02-19T13:42:24;11.90;54.60
5457;DHT22;2751;49.802;9.944;2023-02-19T13:44:53;11.50;56.60
5457;DHT22;2751;49.802;9.944;2023-02-19T13:47:46;11.70;57.70
5457;DHT22;2751;49.802;9.944;2023-02-19T13:50:19;11.40;54.20
5457;DHT22;2751;49.802;9.944;2023-02-19T13:52:46;11.50;38.70
5457;DHT22;2751;49.802;9.944;2023-02-19T13:55:48;11.50;41.50
5457;DHT22;2751;49.802;9.944;2023-02-19T13:58:51;11.60;42.70
5457;DHT22;2751;49.802;9.944;2023-02-19T14:04:50;11.80;40.90
5457;DHT22;2751;49.802;9.944;2023-02-19T14:07:36;11.90;42.00
5457;DHT22;2751;49.802;9.944;2023-02-19T14:10:08;12.10;44.00
5457;DHT22;2751;49.802;9.944;2023-02-19T14:12:36;12.10;42.30
5457;DHT22;2751;49.802;9.944;2023-02-19T14:15:39;12.10;42.00
5457;DHT22;2751;49.802;9.944;2023-02-19T14:18:44;12.20;42.80
5457;DHT22;2751;49.802;9.944;2023-02-19T14:21:16;12.30;40.90
5457;DHT22;2751;49.802;9.944;2023-02-19T14:23:45;12.40;77.60
5457;DHT22;2751;49.802;9.944;2023-02-19T14:26:16;12.70;99.90
5457;DHT22;2751;49.802;9.944;2023-02-19T14:28:44;12.60;88.70
5457;DHT22;2751;49.802;9.944;2023-02-19T14:31:26;12.60;86.90
5457;DHT22;2751;49.802;9.944;2023-02-19T14:33:55;12.20;75.60
5457;DHT22;2751;49.802;9.944;2023-02-19T14:36:31;12.40;68.60
5457;DHT22;2751;49.802;9.944;2023-02-19T14:39:01;12.20;93.90
5457;DHT22;2751;49.802;9.944;2023-02-19T14:41:32;11.80;92.30
5457;DHT22;2751;49.802;9.944;2023-02-19T14:44:02;11.70;77.10
5457;DHT22;2751;49.802;9.944;2023-02-19T14:46:31;11.60;76.60
5457;DHT22;2751;49.802;9.944;2023-02-19T14:49:04;11.40;61.10
5457;DHT22;2751;49.802;9.944;2023-02-19T14:51:36;11.70;57.90
5457;DHT22;2751;49.802;9.944;2023-02-19T14:54:11;11.80;55.90
5457;DHT22;2751;49.802;9.944;2023-02-19T14:56:39;11.50;86.80
5457;DHT22;2751;49.802;9.944;2023-02-19T14:59:21;11.80;50.10
5457;DHT22;2751;49.802;9.944;2023-02-19T15:01:57;11.60;48.80
5457;DHT22;2751;49.802;9.944;2023-02-19T15:04:27;11.80;75.60
5457;DHT22;2751;49.802;9.944;2023-02-19T15:06:59;11.80;42.70
5457;DHT22;2751;49.802;9.944;2023-02-19T15:09:30;11.90;80.00
5457;DHT22;2751;49.802;9.944;2023-02-19T15:11:59;11.90;65.50
5457;DHT22;2751;49.802;9.944;2023-02-19T15:14:27;11.90;68.70
5457;DHT22;2751;49.802;9.944;2023-02-19T15:17:00;11.90;72.60
5457;DHT22;2751;49.802;9.944;2023-02-19T15:19:31;11.80;68.70
5457;DHT22;2751;49.802;9.944;2023-02-19T15:21:59;11.80;85.80
5457;DHT22;2751;49.802;9.944;2023-02-19T15:24:27;11.90;71.50
5457;DHT22;2751;49.802;9.944;2023-02-19T15:26:54;12.10;74.00
5457;DHT22;2751;49.802;9.944;2023-02-19T15:29:23;12.10;95.50
5457;DHT22;2751;49.802;9.944;2023-02-19T15:31:51;11.80;99.90
5457;DHT22;2751;49.802;9.944;2023-02-19T15:34:19;11.60;93.70
5457;DHT22;2751;49.802;9.944;2023-02-19T15:36:50;11.60;99.90
5457;DHT22;2751;49.802;9.944;2023-02-19T15:39:21;11.50;90.30
5457;DHT22;2751;49.802;9.944;2023-02-19T15:41:55;11.50;84.60
5457;DHT22;2751;49.802;9.944;2023-02-19T15:44:40;11.40;96.70
5457;DHT22;2751;49.802;9.944;2023-02-19T15:47:15;11.60;98.10
5457;DHT22;2751;49.802;9.944;2023-02-19T15:49:50;11.50;99.90
5457;DHT22;2751;49.802;9.944;2023-02-19T15:52:28;11.40;84.00
5457;DHT22;2751;49.802;9.944;2023-02-19T15:54:58;11.20;93.30
5457;DHT22;2751;49.802;9.944;2023-02-19T15:57:32;11.20;95.80
5457;DHT22;2751;49.802;9.944;2023-02-19T16:00:08;11.20;78.90
5457;DHT22;2751;49.802;9.944;2023-02-19T16:02:37;11.10;97.70
5457;DHT22;2751;49.802;9.944;2023-02-19T16:05:11;11.10;93.80
5457;DHT22;2751;49.802;9.944;2023-02-19T16:07:41;11.10;43.50
5457;DHT22;2751;49.802;9.944;2023-02-19T16:10:20;11.10;39.40
5457;DHT22;2751;49.802;9.944;2023-02-19T16:12:55;11.30;94.70
5457;DHT22;2751;49.802;9.944;2023-02-19T16:15:22;11.00;99.90
5457;DHT22;2751;49.802;9.944;2023-02-19T16:17:49;11.30;99.50
5457;DHT22;2751;49.802;9.944;2023-02-19T16:20:20;10.90;90.70
5457;DHT22;2751;49.802;9.944;2023-02-19T16:22:49;10.90;99.90
5457;DHT22;2751;49.802;9.944;2023-02-19T16:25:25;10.90;92.90
5457;DHT22;2751;49.802;9.944;2023-02-19T16:27:53;10.90;75.10
5457;DHT22;2751;49.802;9.944;2023-02-19T16:30:28;10.90;83.70
5457;DHT22;2751;49.802;9.944;2023-02-19T16:33:36;10.80;88.90
5457;DHT22;2751;49.802;9.944;2023-02-19T16:36:20;10.80;93.80
5457;DHT22;2751;49.802;9.944;2023-02-19T16:39:24;10.70;79.70
5457;DHT22;2751;49.802;9.944;2023-02-19T16:42:15;10.70;84.70
5457;DHT22;2751;49.802;9.944;2023-02-19T16:44:46;10.70;90.90
5457;DHT22;2751;49.802;9.944;2023-02-19T16:47:25;10.60;63.30